Time;durP1;ratioP1;P1;durP2;ratioP2;P2;SDS_P1;SDS_P2;PMS_P1;PMS_P2;Temp;Humidity;BMP_temperature;BMP_pressure;BME280_temperature;BME280_humidity;BME280_pressure;Samples;Min_cycle;Max_cycle;Signal;HPM_P1;HPM_P2
2020/12/22 00:00:54;;;;;;;1.70;1.60;;;;;22.10;99696.00;;;;2058982;28;20212;-72
2020/12/22 00:01:54;;;;;;;1.90;1.70;;;;;22.10;99686.00;;;;2066290;28;20217;-73
2020/12/22 00:02:54;;;;;;;1.80;1.67;;;;;22.10;99690.00;;;;2054311;28;598003;-73
2020/12/22 00:03:55;;;;;;;1.90;1.80;;;;;22.10;99692.00;;;;2066869;28;20441;-73
2020/12/22 00:04:55;;;;;;;1.80;1.50;;;;;22.10;99696.00;;;;2062727;28;20270;-73
2020/12/22 00:05:55;;;;;;;2.00;1.80;;;;;22.10;99692.00;;;;2063133;28;20241;-73
2020/12/22 00:06:57;;;;;;;1.67;1.57;;;;;22.10;99694.00;;;;2062558;28;20253;-73
2020/12/22 00:07:57;;;;;;;1.83;1.65;;;;;22.10;99689.00;;;;2067020;28;20215;-73
2020/12/22 00:08:58;;;;;;;1.90;1.70;;;;;22.10;99694.00;;;;2067148;28;20218;-73
2020/12/22 00:09:58;;;;;;;1.70;1.53;;;;;22.10;99691.00;;;;2066093;28;20219;-73
2020/12/22 00:10:58;;;;;;;1.97;1.30;;;;;22.10;99690.00;;;;2076114;28;20264;-73
2020/12/22 00:11:58;;;;;;;1.80;1.50;;;;;22.10;99680.00;;;;2066628;28;20254;-73
2020/12/22 00:12:59;;;;;;;1.90;1.63;;;;;22.10;99674.00;;;;2055195;28;20226;-73
2020/12/22 00:13:59;;;;;;;1.60;1.50;;;;;22.00;99666.00;;;;2066754;28;20246;-73
2020/12/22 00:15:00;;;;;;;1.50;1.40;;;;;22.10;99673.00;;;;2060246;28;20211;-72
2020/12/22 00:16:00;;;;;;;2.17;1.80;;;;;22.00;99665.00;;;;2058440;28;20249;-73
2020/12/22 00:17:03;;;;;;;1.77;1.50;;;;;22.00;99673.00;;;;2067495;28;20207;-73
2020/12/22 00:18:04;;;;;;;1.75;1.55;;;;;22.00;99658.00;;;;2065882;28;20310;-73
2020/12/22 00:19:04;;;;;;;1.60;1.50;;;;;22.10;99667.00;;;;2068077;28;20207;-73
2020/12/22 00:20:05;;;;;;;1.47;1.37;;;;;22.10;99665.00;;;;2049819;28;20700;-73
2020/12/22 00:21:05;;;;;;;2.20;1.90;;;;;22.00;99665.00;;;;2060014;28;20297;-73
2020/12/22 00:22:05;;;;;;;1.03;0.97;;;;;22.10;99656.00;;;;2073767;28;20217;-73
2020/12/22 00:23:06;;;;;;;2.10;1.27;;;;;22.00;99674.00;;;;2077173;28;20213;-73
2020/12/22 00:24:06;;;;;;;1.23;0.97;;;;;22.00;99659.00;;;;2071066;28;20221;-73
2020/12/22 00:25:06;;;;;;;1.73;1.57;;;;;22.00;99654.00;;;;2062792;28;20273;-72
2020/12/22 00:26:07;;;;;;;1.67;1.57;;;;;22.00;99645.00;;;;2068468;28;20219;-73
2020/12/22 00:27:07;;;;;;;1.77;1.20;;;;;22.10;99648.00;;;;2065490;28;20713;-73
2020/12/22 00:28:08;;;;;;;1.93;1.13;;;;;22.00;99660.00;;;;2060515;28;20784;-73
2020/12/22 00:29:08;;;;;;;1.60;1.33;;;;;22.00;99651.00;;;;2049268;28;20225;-73
2020/12/22 00:30:08;;;;;;;1.77;1.57;;;;;22.00;99648.00;;;;2060516;28;20372;-73
2020/12/22 00:31:09;;;;;;;1.60;1.50;;;;;22.00;99652.00;;;;2074133;28;20218;-73
2020/12/22 00:32:09;;;;;;;2.00;1.30;;;;;22.00;99646.00;;;;2068821;28;20215;-73
2020/12/22 00:33:09;;;;;;;1.43;1.33;;;;;22.00;99655.00;;;;2065397;28;20707;-73
2020/12/22 00:34:10;;;;;;;1.93;1.37;;;;;22.00;99653.00;;;;2068795;28;20216;-73
2020/12/22 00:35:10;;;;;;;2.47;1.43;;;;;22.00;99658.00;;;;2062644;28;20216;-73
2020/12/22 00:36:10;;;;;;;2.00;1.20;;;;;22.00;99654.00;;;;2062961;28;20214;-73
2020/12/22 00:37:11;;;;;;;1.23;1.13;;;;;22.00;99649.00;;;;2054915;28;20215;-73
2020/12/22 00:38:11;;;;;;;1.97;1.40;;;;;22.00;99649.00;;;;2054937;28;20218;-73
2020/12/22 00:39:11;;;;;;;1.40;1.10;;;;;22.00;99663.00;;;;2060932;28;20215;-73
2020/12/22 00:40:12;;;;;;;1.20;1.10;;;;;22.00;99644.00;;;;2063127;28;20247;-72
2020/12/22 00:41:15;;;;;;;1.10;1.00;;;;;22.00;99650.00;;;;2056744;28;26071;-73
2020/12/22 00:42:15;;;;;;;1.50;1.10;;;;;22.00;99641.00;;;;2061659;28;20219;-73
2020/12/22 00:43:15;;;;;;;1.43;1.30;;;;;22.00;99634.00;;;;2064396;28;20761;-73
2020/12/22 00:44:16;;;;;;;1.87;1.10;;;;;22.00;99631.00;;;;2068638;28;20635;-73
2020/12/22 00:45:16;;;;;;;1.20;1.00;;;;;22.00;99644.00;;;;2062508;28;20585;-73
2020/12/22 00:46:17;;;;;;;1.00;0.90;;;;;22.00;99653.00;;;;2064156;28;20818;-73
2020/12/22 00:47:17;;;;;;;1.17;1.07;;;;;22.00;99666.00;;;;2069626;28;20244;-75
2020/12/22 00:48:17;;;;;;;1.03;0.93;;;;;22.00;99656.00;;;;2056066;28;21035;-74
2020/12/22 00:49:18;;;;;;;1.70;0.90;;;;;22.00;99653.00;;;;2069817;28;20269;-74
2020/12/22 00:50:18;;;;;;;1.40;1.30;;;;;22.00;99655.00;;;;2064113;28;20231;-74
2020/12/22 00:51:22;;;;;;;1.07;0.90;;;;;22.00;99649.00;;;;2069842;28;20649;-74
2020/12/22 00:52:22;;;;;;;1.60;0.98;;;;;22.00;99651.00;;;;2055498;28;20214;-74
2020/12/22 00:53:22;;;;;;;2.43;1.40;;;;;21.90;99646.00;;;;2062411;28;20233;-74
2020/12/22 00:54:23;;;;;;;1.87;1.07;;;;;22.00;99658.00;;;;2079072;28;20222;-74
2020/12/22 00:55:23;;;;;;;1.00;0.90;;;;;22.00;99654.00;;;;2070391;28;20276;-74
2020/12/22 00:56:23;;;;;;;1.10;0.90;;;;;22.00;99630.00;;;;2063210;28;20214;-74
2020/12/22 00:57:24;;;;;;;1.63;1.30;;;;;21.90;99651.00;;;;2062015;28;20289;-74
2020/12/22 00:58:24;;;;;;;1.47;1.17;;;;;21.90;99660.00;;;;2071050;28;20228;-74
2020/12/22 00:59:24;;;;;;;1.33;1.10;;;;;21.90;99670.00;;;;2071412;28;20708;-74
2020/12/22 01:00:25;;;;;;;1.00;0.90;;;;;22.00;99660.00;;;;2061837;28;20946;-74
2020/12/22 01:01:30;;;;;;;0.80;0.80;;;;;21.90;99664.00;;;;2055110;28;20702;-74
2020/12/22 01:02:30;;;;;;;1.10;1.00;;;;;21.90;99653.00;;;;2063127;28;20657;-74
2020/12/22 01:03:30;;;;;;;2.90;1.20;;;;;21.90;99651.00;;;;2063108;28;20215;-74
2020/12/22 01:04:31;;;;;;;1.03;0.93;;;;;21.90;99637.00;;;;2070658;28;20224;-74
2020/12/22 01:05:31;;;;;;;0.83;0.80;;;;;21.90;99658.00;;;;2062716;28;20714;-74
2020/12/22 01:06:36;;;;;;;1.07;0.97;;;;;21.90;99672.00;;;;2052974;28;20310;-74
2020/12/22 01:07:36;;;;;;;1.83;1.00;;;;;21.90;99659.00;;;;2062212;28;20226;-74
2020/12/22 01:08:36;;;;;;;1.00;0.90;;;;;21.90;99637.00;;;;2064084;28;20215;-74
2020/12/22 01:09:37;;;;;;;1.00;0.90;;;;;21.90;99654.00;;;;2062606;28;20219;-74
2020/12/22 01:10:37;;;;;;;1.00;0.80;;;;;21.90;99668.00;;;;2062813;28;20262;-74
2020/12/22 01:11:39;;;;;;;1.33;1.10;;;;;21.90;99673.00;;;;2079480;28;20209;-74
2020/12/22 01:12:39;;;;;;;1.40;0.70;;;;;21.90;99672.00;;;;2069284;28;20215;-74
2020/12/22 01:13:39;;;;;;;1.03;0.90;;;;;21.90;99671.00;;;;2042288;28;20220;-74
2020/12/22 01:14:39;;;;;;;1.00;0.90;;;;;21.90;99666.00;;;;2054489;28;20226;-74
2020/12/22 01:15:40;;;;;;;1.50;0.97;;;;;21.90;99665.00;;;;2064460;28;20211;-74
2020/12/22 01:16:40;;;;;;;1.00;0.90;;;;;21.90;99662.00;;;;2069141;28;20268;-74
2020/12/22 01:17:40;;;;;;;1.23;1.13;;;;;21.90;99650.00;;;;2073276;28;20241;-74
2020/12/22 01:18:41;;;;;;;0.80;0.80;;;;;21.90;99656.00;;;;2070764;28;20214;-74
2020/12/22 01:19:41;;;;;;;1.03;0.90;;;;;21.90;99661.00;;;;2070612;28;20213;-74
2020/12/22 01:20:42;;;;;;;1.00;0.70;;;;;21.90;99657.00;;;;2060820;28;20219;-74
2020/12/22 01:21:42;;;;;;;0.90;0.80;;;;;21.90;99662.00;;;;2064847;28;20203;-74
2020/12/22 01:22:42;;;;;;;1.20;0.87;;;;;21.90;99645.00;;;;2060624;28;20215;-74
2020/12/22 01:23:43;;;;;;;1.63;0.90;;;;;21.90;99660.00;;;;2065054;28;20226;-74
2020/12/22 01:24:43;;;;;;;0.83;0.83;;;;;21.90;99660.00;;;;2063806;28;20271;-74
2020/12/22 01:25:43;;;;;;;1.63;0.77;;;;;21.90;99659.00;;;;2058232;28;20215;-74
2020/12/22 01:26:44;;;;;;;1.07;0.90;;;;;21.90;99662.00;;;;2064069;28;20302;-74
2020/12/22 01:27:44;;;;;;;1.00;0.90;;;;;21.90;99665.00;;;;2058451;28;20220;-74
2020/12/22 01:28:44;;;;;;;0.60;0.60;;;;;21.80;99666.00;;;;2072500;28;20305;-74
2020/12/22 01:29:45;;;;;;;0.77;0.57;;;;;21.90;99664.00;;;;2069612;28;20308;-74
2020/12/22 01:30:45;;;;;;;0.87;0.87;;;;;21.90;99665.00;;;;2066598;28;20254;-74
2020/12/22 01:31:45;;;;;;;0.80;0.70;;;;;21.90;99663.00;;;;2061633;28;20219;-74
2020/12/22 01:32:47;;;;;;;0.90;0.80;;;;;21.80;99667.00;;;;2042810;28;20264;-74
2020/12/22 01:33:47;;;;;;;1.02;0.77;;;;;21.90;99663.00;;;;2064296;28;20570;-74
2020/12/22 01:34:48;;;;;;;0.80;0.80;;;;;21.90;99665.00;;;;2072027;28;20226;-73
2020/12/22 01:35:48;;;;;;;1.57;1.00;;;;;21.80;99669.00;;;;2064029;28;20223;-74
2020/12/22 01:36:48;;;;;;;1.37;0.80;;;;;21.80;99666.00;;;;2055897;28;20223;-74
2020/12/22 01:37:49;;;;;;;0.70;0.70;;;;;21.90;99675.00;;;;2069169;28;20282;-74
2020/12/22 01:38:49;;;;;;;0.70;0.60;;;;;21.80;99667.00;;;;2067096;28;20226;-74
2020/12/22 01:39:49;;;;;;;1.03;0.70;;;;;21.80;99670.00;;;;2060882;28;20228;-74
2020/12/22 01:40:50;;;;;;;0.80;0.70;;;;;21.80;99665.00;;;;2059052;28;20215;-74
2020/12/22 01:41:50;;;;;;;0.80;0.80;;;;;21.80;99672.00;;;;2060964;28;20219;-74
2020/12/22 01:42:50;;;;;;;1.07;0.80;;;;;21.80;99663.00;;;;2058688;28;20864;-74
2020/12/22 01:44:10;;;;;;;0.90;0.60;;;;;21.80;99657.00;;;;2068799;28;20690;-74
2020/12/22 01:45:11;;;;;;;1.08;0.75;;;;;21.80;99659.00;;;;2061627;28;20704;-74
2020/12/22 01:46:11;;;;;;;0.70;0.60;;;;;21.80;99654.00;;;;2047851;28;20219;-74
2020/12/22 01:47:12;;;;;;;1.00;0.90;;;;;21.80;99665.00;;;;2062017;28;20665;-74
2020/12/22 01:48:12;;;;;;;0.90;0.60;;;;;21.80;99661.00;;;;2064087;28;20221;-74
2020/12/22 01:49:20;;;;;;;1.50;0.80;;;;;21.80;99667.00;;;;2048953;28;20821;-74
2020/12/22 01:50:20;;;;;;;0.77;0.70;;;;;21.80;99668.00;;;;2071311;28;20687;-74
2020/12/22 01:51:22;;;;;;;2.40;0.70;;;;;21.80;99677.00;;;;2065352;28;20238;-74
2020/12/22 01:52:22;;;;;;;0.90;0.60;;;;;21.80;99670.00;;;;2080118;28;20300;-74
2020/12/22 01:53:22;;;;;;;0.73;0.63;;;;;21.80;99662.00;;;;2056618;28;20706;-74
2020/12/22 01:54:23;;;;;;;0.90;0.60;;;;;21.80;99661.00;;;;2063580;28;20763;-74
2020/12/22 01:55:23;;;;;;;0.60;0.60;;;;;21.80;99669.00;;;;2071979;28;20724;-74
2020/12/22 01:56:24;;;;;;;0.60;0.50;;;;;21.80;99670.00;;;;2063602;28;20450;-74
2020/12/22 01:57:24;;;;;;;0.73;0.50;;;;;21.80;99661.00;;;;2064227;28;20219;-74
2020/12/22 01:58:25;;;;;;;0.93;0.60;;;;;21.80;99659.00;;;;2063744;28;20223;-74
2020/12/22 01:59:25;;;;;;;0.87;0.70;;;;;21.80;99652.00;;;;2063921;28;20240;-74
2020/12/22 02:00:25;;;;;;;0.70;0.57;;;;;21.70;99647.00;;;;2056083;28;20227;-74
2020/12/22 02:01:26;;;;;;;0.70;0.50;;;;;21.80;99652.00;;;;2063757;28;20245;-74
2020/12/22 02:02:26;;;;;;;1.17;0.70;;;;;21.80;99665.00;;;;2055960;28;20289;-74
2020/12/22 02:03:26;;;;;;;0.60;0.60;;;;;21.80;99666.00;;;;2063632;28;20222;-74
2020/12/22 02:04:27;;;;;;;0.73;0.70;;;;;21.80;99658.00;;;;2061567;28;20214;-74
2020/12/22 02:05:27;;;;;;;0.77;0.63;;;;;21.80;99666.00;;;;2041332;28;20239;-74
2020/12/22 02:06:28;;;;;;;0.70;0.60;;;;;21.70;99666.00;;;;2062356;28;20229;-74
2020/12/22 02:07:28;;;;;;;0.60;0.52;;;;;21.70;99666.00;;;;2062942;28;20225;-74
2020/12/22 02:08:29;;;;;;;0.70;0.50;;;;;21.70;99665.00;;;;2055669;28;20614;-74
2020/12/22 02:09:29;;;;;;;0.67;0.50;;;;;21.70;99659.00;;;;2063250;28;20622;-74
2020/12/22 02:10:29;;;;;;;0.90;0.53;;;;;21.70;99665.00;;;;2063458;28;20923;-74
2020/12/22 02:11:30;;;;;;;0.70;0.50;;;;;21.70;99662.00;;;;2071224;28;20241;-74
2020/12/22 02:12:31;;;;;;;0.90;0.60;;;;;21.70;99663.00;;;;2071329;28;20685;-74
2020/12/22 02:13:31;;;;;;;0.80;0.60;;;;;21.70;99661.00;;;;2055232;28;21020;-74
2020/12/22 02:14:31;;;;;;;0.80;0.60;;;;;21.70;99659.00;;;;2055257;28;20215;-74
2020/12/22 02:15:32;;;;;;;0.63;0.50;;;;;21.70;99658.00;;;;2071191;28;20215;-74
2020/12/22 02:16:32;;;;;;;1.17;0.50;;;;;21.70;99653.00;;;;2079923;28;20221;-74
2020/12/22 02:17:32;;;;;;;0.60;0.43;;;;;21.70;99669.00;;;;2070619;28;20300;-74
2020/12/22 02:18:32;;;;;;;0.63;0.60;;;;;21.70;99640.00;;;;2064348;28;20241;-74
2020/12/22 02:19:33;;;;;;;0.83;0.70;;;;;21.70;99647.00;;;;2061513;28;20253;-74
2020/12/22 02:20:33;;;;;;;1.17;0.50;;;;;21.70;99658.00;;;;2064663;28;20249;-74
2020/12/22 02:21:33;;;;;;;0.60;0.40;;;;;21.70;99668.00;;;;2071016;28;20213;-74
2020/12/22 02:22:34;;;;;;;0.70;0.50;;;;;21.70;99657.00;;;;2064814;28;20218;-74
2020/12/22 02:23:34;;;;;;;0.70;0.60;;;;;21.70;99662.00;;;;2063028;28;20217;-74
2020/12/22 02:24:35;;;;;;;1.00;0.60;;;;;21.70;99660.00;;;;2049485;28;20720;-74
2020/12/22 02:25:35;;;;;;;0.80;0.50;;;;;21.70;99662.00;;;;2062362;28;20232;-74
2020/12/22 02:26:35;;;;;;;0.60;0.40;;;;;21.70;99652.00;;;;2071434;28;20240;-74
2020/12/22 02:27:36;;;;;;;0.80;0.50;;;;;21.70;99659.00;;;;2079439;28;20221;-74
2020/12/22 02:28:36;;;;;;;0.70;0.50;;;;;21.70;99660.00;;;;2061776;28;20221;-74
2020/12/22 02:29:36;;;;;;;0.70;0.40;;;;;21.70;99655.00;;;;2048399;28;20224;-74
2020/12/22 02:30:37;;;;;;;1.00;0.50;;;;;21.70;99658.00;;;;2071282;28;20266;-74
2020/12/22 02:31:38;;;;;;;1.00;0.57;;;;;21.70;99664.00;;;;2071278;28;20214;-74
2020/12/22 02:32:38;;;;;;;0.70;0.50;;;;;21.70;99654.00;;;;2055026;28;20239;-74
2020/12/22 02:33:39;;;;;;;0.80;0.70;;;;;21.70;99667.00;;;;2054472;28;20219;-74
2020/12/22 02:34:39;;;;;;;0.60;0.50;;;;;21.70;99670.00;;;;2071036;28;20218;-74
2020/12/22 02:35:40;;;;;;;0.90;0.50;;;;;21.70;99657.00;;;;2063815;28;20219;-74
2020/12/22 02:36:40;;;;;;;0.88;0.50;;;;;21.70;99663.00;;;;2063659;28;20285;-74
2020/12/22 02:37:41;;;;;;;0.70;0.50;;;;;21.70;99659.00;;;;2078516;28;20716;-74
2020/12/22 02:38:41;;;;;;;0.80;0.50;;;;;21.60;99653.00;;;;2065620;28;20602;-74
2020/12/22 02:39:42;;;;;;;0.60;0.40;;;;;21.70;99672.00;;;;2053764;28;20227;-74
2020/12/22 02:40:42;;;;;;;0.97;0.43;;;;;21.70;99661.00;;;;2049797;28;20223;-74
2020/12/22 02:41:42;;;;;;;0.70;0.50;;;;;21.70;99650.00;;;;2065599;28;20218;-74
2020/12/22 02:42:43;;;;;;;1.33;0.63;;;;;21.70;99662.00;;;;2061586;28;20345;-74
2020/12/22 02:43:43;;;;;;;0.60;0.40;;;;;21.70;99655.00;;;;2049754;28;20216;-74
2020/12/22 02:44:43;;;;;;;1.00;0.50;;;;;21.60;99650.00;;;;2061218;28;20222;-74
2020/12/22 02:45:44;;;;;;;0.60;0.40;;;;;21.70;99655.00;;;;2050000;28;20231;-74
2020/12/22 02:46:45;;;;;;;1.30;0.47;;;;;21.70;99666.00;;;;2053204;28;20290;-74
2020/12/22 02:47:45;;;;;;;0.70;0.50;;;;;21.70;99671.00;;;;2049940;28;20898;-74
2020/12/22 02:48:45;;;;;;;2.53;0.70;;;;;21.70;99657.00;;;;2069272;28;20210;-73
2020/12/22 02:49:46;;;;;;;0.70;0.43;;;;;21.70;99658.00;;;;2074714;28;20221;-74
2020/12/22 02:50:46;;;;;;;0.80;0.50;;;;;21.60;99657.00;;;;2063522;28;20211;-74
2020/12/22 02:51:46;;;;;;;0.90;0.50;;;;;21.60;99689.00;;;;2037034;29;20308;-74
2020/12/22 02:52:47;;;;;;;0.60;0.50;;;;;21.60;99676.00;;;;2039488;29;20209;-74
2020/12/22 02:53:47;;;;;;;0.60;0.40;;;;;21.60;99666.00;;;;2058151;28;20272;-74
2020/12/22 02:54:47;;;;;;;0.70;0.50;;;;;21.60;99685.00;;;;2057199;28;20246;-74
2020/12/22 02:55:47;;;;;;;0.70;0.50;;;;;21.60;99682.00;;;;2071718;28;20210;-74
2020/12/22 02:56:48;;;;;;;0.90;0.40;;;;;21.60;99671.00;;;;2071439;28;20222;-74
2020/12/22 02:57:48;;;;;;;0.60;0.50;;;;;21.60;99671.00;;;;2063402;28;20246;-73
2020/12/22 02:58:51;;;;;;;0.80;0.50;;;;;21.60;99666.00;;;;2063385;28;20219;-74
2020/12/22 02:59:51;;;;;;;0.70;0.57;;;;;21.60;99664.00;;;;2060238;28;20227;-74
2020/12/22 03:00:51;;;;;;;1.17;0.50;;;;;21.60;99668.00;;;;2059338;28;20865;-74
2020/12/22 03:01:52;;;;;;;0.60;0.50;;;;;21.60;99658.00;;;;2071528;28;21044;-74
2020/12/22 03:02:52;;;;;;;0.70;0.60;;;;;21.60;99667.00;;;;2059856;28;20768;-74
2020/12/22 03:03:53;;;;;;;0.97;0.50;;;;;21.60;99660.00;;;;2050739;28;20988;-74
2020/12/22 03:04:53;;;;;;;1.10;0.50;;;;;21.60;99662.00;;;;2060132;28;20271;-74
2020/12/22 03:05:53;;;;;;;0.80;0.40;;;;;21.60;99669.00;;;;2071304;28;20241;-74
2020/12/22 03:06:54;;;;;;;0.80;0.50;;;;;21.60;99656.00;;;;2062259;28;20274;-74
2020/12/22 03:07:54;;;;;;;0.80;0.50;;;;;21.60;99662.00;;;;2067796;28;20776;-74
2020/12/22 03:08:54;;;;;;;0.60;0.47;;;;;21.60;99655.00;;;;2067170;28;20244;-74
2020/12/22 03:09:55;;;;;;;0.77;0.53;;;;;21.60;99663.00;;;;2067402;28;20245;-74
2020/12/22 03:10:55;;;;;;;0.80;0.50;;;;;21.60;99636.00;;;;2059120;28;20276;-74
2020/12/22 03:11:55;;;;;;;0.77;0.50;;;;;21.60;99656.00;;;;2059677;28;20215;-74
2020/12/22 03:12:56;;;;;;;0.60;0.50;;;;;21.50;99652.00;;;;2067355;28;20702;-74
2020/12/22 03:13:56;;;;;;;0.70;0.50;;;;;21.60;99642.00;;;;2059611;28;20622;-74
2020/12/22 03:14:56;;;;;;;0.70;0.40;;;;;21.60;99672.00;;;;2059190;28;20219;-74
2020/12/22 03:15:56;;;;;;;1.73;0.50;;;;;21.60;99651.00;;;;2059540;28;20639;-74
2020/12/22 03:16:57;;;;;;;0.80;0.50;;;;;21.50;99655.00;;;;2051194;28;20258;-74
2020/12/22 03:17:57;;;;;;;0.77;0.40;;;;;21.50;99658.00;;;;2067458;28;20226;-74
2020/12/22 03:18:58;;;;;;;0.60;0.40;;;;;21.60;99651.00;;;;2067753;28;20260;-74
2020/12/22 03:19:58;;;;;;;1.13;0.60;;;;;21.60;99662.00;;;;2067443;28;20231;-74
2020/12/22 03:20:58;;;;;;;0.90;0.40;;;;;21.60;99655.00;;;;2076360;28;20279;-74
2020/12/22 03:21:59;;;;;;;1.23;0.50;;;;;21.60;99662.00;;;;2067276;28;20246;-74
2020/12/22 03:22:59;;;;;;;1.53;0.40;;;;;21.50;99646.00;;;;2067759;28;20225;-74
2020/12/22 03:23:59;;;;;;;1.47;0.40;;;;;21.60;99652.00;;;;2075877;28;20237;-74
2020/12/22 03:25:00;;;;;;;0.80;0.53;;;;;21.60;99659.00;;;;2067488;28;20222;-74
2020/12/22 03:26:00;;;;;;;0.70;0.40;;;;;21.60;99666.00;;;;2067029;28;20230;-74
2020/12/22 03:27:00;;;;;;;0.73;0.50;;;;;21.50;99659.00;;;;2067646;28;20733;-73
2020/12/22 03:28:01;;;;;;;0.97;0.43;;;;;21.50;99654.00;;;;2075762;28;20230;-74
2020/12/22 03:29:01;;;;;;;1.17;0.50;;;;;21.50;99670.00;;;;2076648;28;20242;-74
2020/12/22 03:30:03;;;;;;;0.67;0.47;;;;;21.50;99652.00;;;;2075495;28;20236;-74
2020/12/22 03:31:04;;;;;;;0.60;0.40;;;;;21.60;99663.00;;;;2068451;28;20222;-74
2020/12/22 03:32:04;;;;;;;1.47;0.50;;;;;21.60;99646.00;;;;2066789;28;20576;-74
2020/12/22 03:33:04;;;;;;;2.93;0.47;;;;;21.50;99663.00;;;;2068446;28;20720;-74
2020/12/22 03:34:04;;;;;;;0.70;0.50;;;;;21.60;99660.00;;;;2070601;28;20844;-74
2020/12/22 03:35:05;;;;;;;1.70;0.50;;;;;21.60;99652.00;;;;2071365;28;20581;-74
2020/12/22 03:36:05;;;;;;;0.73;0.40;;;;;21.60;99649.00;;;;2063339;28;20571;-74
2020/12/22 03:37:06;;;;;;;0.70;0.40;;;;;21.50;99667.00;;;;2063351;28;20249;-74
2020/12/22 03:38:06;;;;;;;0.60;0.50;;;;;21.50;99666.00;;;;2063126;28;20713;-74
2020/12/22 03:39:06;;;;;;;2.13;0.50;;;;;21.60;99664.00;;;;2063434;28;20577;-74
2020/12/22 03:40:08;;;;;;;0.80;0.50;;;;;21.50;99661.00;;;;2080110;28;20239;-74
2020/12/22 03:41:09;;;;;;;0.68;0.40;;;;;21.50;99671.00;;;;2074477;28;20213;-74
2020/12/22 03:42:10;;;;;;;0.88;0.50;;;;;21.50;99670.00;;;;2077797;28;20213;-73
2020/12/22 03:43:10;;;;;;;0.97;0.50;;;;;21.50;99676.00;;;;2074462;28;20562;-74
2020/12/22 03:44:11;;;;;;;1.00;0.60;;;;;21.50;99671.00;;;;2061043;28;20731;-74
2020/12/22 03:45:12;;;;;;;0.82;0.45;;;;;21.60;99680.00;;;;2048837;28;20219;-74
2020/12/22 03:46:12;;;;;;;1.47;0.93;;;;;21.50;99691.00;;;;2068078;28;20225;-74
2020/12/22 03:47:13;;;;;;;1.17;0.63;;;;;21.50;99683.00;;;;2048560;28;20340;-74
2020/12/22 03:48:13;;;;;;;1.27;0.50;;;;;21.50;99688.00;;;;2061415;28;20218;-74
2020/12/22 03:49:15;;;;;;;0.97;0.50;;;;;21.50;99671.00;;;;2071252;28;20301;-74
2020/12/22 03:50:15;;;;;;;1.63;0.65;;;;;21.50;99682.00;;;;2069512;28;20217;-74
2020/12/22 03:51:16;;;;;;;0.60;0.40;;;;;21.50;99692.00;;;;2056534;28;20282;-74
2020/12/22 03:52:16;;;;;;;0.60;0.40;;;;;21.50;99685.00;;;;2069841;28;20213;-74
2020/12/22 03:53:16;;;;;;;0.60;0.40;;;;;21.50;99685.00;;;;2064638;28;20238;-74
2020/12/22 03:54:17;;;;;;;0.70;0.40;;;;;21.50;99679.00;;;;2069829;28;20213;-74
2020/12/22 03:55:17;;;;;;;1.07;0.40;;;;;21.50;99687.00;;;;2071034;28;20288;-74
2020/12/22 03:56:17;;;;;;;0.90;0.53;;;;;21.50;99675.00;;;;2055077;28;20208;-74
2020/12/22 03:57:18;;;;;;;1.47;0.40;;;;;21.50;99691.00;;;;2056206;28;20796;-74
2020/12/22 03:58:18;;;;;;;0.90;0.50;;;;;21.50;99669.00;;;;2078820;28;20219;-74
2020/12/22 03:59:19;;;;;;;0.97;0.50;;;;;21.50;99688.00;;;;2079225;28;20275;-74
2020/12/22 04:00:19;;;;;;;1.20;0.40;;;;;21.50;99673.00;;;;2063795;28;20779;-74
2020/12/22 04:01:19;;;;;;;0.60;0.40;;;;;21.50;99679.00;;;;2063122;28;20792;-74
2020/12/22 04:02:20;;;;;;;0.60;0.50;;;;;21.50;99685.00;;;;2063136;28;20213;-74
2020/12/22 04:03:20;;;;;;;0.80;0.50;;;;;21.50;99682.00;;;;2070145;28;20236;-74
2020/12/22 04:04:21;;;;;;;0.80;0.40;;;;;21.50;99688.00;;;;2076144;28;20212;-74
2020/12/22 04:05:23;;;;;;;1.27;0.57;;;;;21.40;99676.00;;;;2061982;28;20721;-74
2020/12/22 04:06:23;;;;;;;0.70;0.40;;;;;21.50;99670.00;;;;2061268;28;20258;-74
2020/12/22 04:07:23;;;;;;;1.53;0.40;;;;;21.50;99672.00;;;;2078773;28;20235;-74
2020/12/22 04:08:24;;;;;;;0.60;0.40;;;;;21.50;99682.00;;;;2079076;28;20216;-74
2020/12/22 04:09:24;;;;;;;0.80;0.50;;;;;21.50;99684.00;;;;2071247;28;20264;-74
2020/12/22 04:10:24;;;;;;;0.60;0.40;;;;;21.40;99685.00;;;;2070782;28;20225;-74
2020/12/22 04:11:25;;;;;;;0.90;0.40;;;;;21.50;99670.00;;;;2063487;28;20226;-74
2020/12/22 04:12:25;;;;;;;0.60;0.40;;;;;21.50;99680.00;;;;2070958;28;20226;-74
2020/12/22 04:13:25;;;;;;;0.60;0.43;;;;;21.50;99673.00;;;;2055239;28;20225;-74
2020/12/22 04:14:25;;;;;;;0.87;0.50;;;;;21.50;99672.00;;;;2070085;28;20252;-74
2020/12/22 04:15:26;;;;;;;0.93;0.60;;;;;21.50;99696.00;;;;2062282;28;20303;-74
2020/12/22 04:16:26;;;;;;;0.60;0.40;;;;;21.50;99664.00;;;;2070445;28;20262;-74
2020/12/22 04:17:27;;;;;;;1.13;0.43;;;;;21.50;99689.00;;;;2062499;28;20214;-74
2020/12/22 04:18:27;;;;;;;0.70;0.50;;;;;21.40;99688.00;;;;2061718;28;20217;-74
2020/12/22 04:19:27;;;;;;;1.10;0.50;;;;;21.40;99688.00;;;;2057268;28;20216;-74
2020/12/22 04:20:28;;;;;;;0.60;0.40;;;;;21.50;99674.00;;;;2071370;28;20223;-74
2020/12/22 04:21:28;;;;;;;1.93;0.40;;;;;21.50;99699.00;;;;2078287;28;20222;-74
2020/12/22 04:22:28;;;;;;;0.50;0.30;;;;;21.50;99691.00;;;;2062929;28;20218;-74
2020/12/22 04:23:29;;;;;;;0.80;0.73;;;;;21.40;99684.00;;;;2070573;28;20212;-74
2020/12/22 04:24:29;;;;;;;0.67;0.40;;;;;21.40;99687.00;;;;2061471;28;20247;-73
2020/12/22 04:25:30;;;;;;;1.03;0.50;;;;;21.40;99684.00;;;;2062049;28;20590;-74
2020/12/22 04:26:30;;;;;;;0.70;0.43;;;;;21.50;99685.00;;;;2055619;28;20758;-74
2020/12/22 04:27:30;;;;;;;1.03;0.50;;;;;21.50;99692.00;;;;2070289;28;20266;-74
2020/12/22 04:28:30;;;;;;;0.83;0.40;;;;;21.40;99694.00;;;;2072170;28;20218;-74
2020/12/22 04:29:31;;;;;;;0.60;0.40;;;;;21.40;99695.00;;;;2070413;28;22034;-74
2020/12/22 04:30:31;;;;;;;1.03;0.53;;;;;21.40;99694.00;;;;2063625;28;20276;-74
2020/12/22 04:31:32;;;;;;;0.60;0.40;;;;;21.40;99702.00;;;;2079335;28;20205;-74
2020/12/22 04:32:32;;;;;;;1.10;0.40;;;;;21.40;99703.00;;;;2063723;28;20213;-74
2020/12/22 04:33:32;;;;;;;1.10;0.50;;;;;21.40;99704.00;;;;2070463;28;20608;-74
2020/12/22 04:34:33;;;;;;;1.30;0.40;;;;;21.40;99713.00;;;;2070484;28;20869;-74
2020/12/22 04:35:33;;;;;;;0.90;0.40;;;;;21.40;99716.00;;;;2071163;28;20213;-74
2020/12/22 04:36:33;;;;;;;1.70;0.50;;;;;21.40;99711.00;;;;2073795;28;20218;-74
2020/12/22 04:37:34;;;;;;;0.60;0.40;;;;;21.40;99706.00;;;;2070202;28;20239;-74
2020/12/22 04:38:34;;;;;;;0.90;0.50;;;;;21.40;99715.00;;;;2063057;28;20218;-74
2020/12/22 04:39:34;;;;;;;1.83;0.60;;;;;21.40;99717.00;;;;2054697;28;20798;-74
2020/12/22 04:40:35;;;;;;;1.57;0.40;;;;;21.40;99713.00;;;;2048154;28;20255;-74
2020/12/22 04:41:36;;;;;;;1.53;0.70;;;;;21.50;99705.00;;;;2062022;28;20215;-74
2020/12/22 04:42:36;;;;;;;1.42;0.30;;;;;21.40;99710.00;;;;2056168;28;20219;-74
2020/12/22 04:43:38;;;;;;;1.87;0.70;;;;;21.40;99710.00;;;;2056325;28;20711;-74
2020/12/22 04:44:40;;;;;;;0.85;0.50;;;;;21.40;99760.00;;;;2056348;28;20231;-74
2020/12/22 04:45:40;;;;;;;1.15;0.40;;;;;21.40;99709.00;;;;2056855;28;20776;-74
2020/12/22 04:46:40;;;;;;;0.60;0.40;;;;;21.40;99714.00;;;;2063014;28;20254;-74
2020/12/22 04:47:41;;;;;;;0.70;0.40;;;;;21.40;99704.00;;;;2060952;28;20270;-74
2020/12/22 04:48:42;;;;;;;2.15;0.40;;;;;21.40;99705.00;;;;2061022;28;20748;-74
2020/12/22 04:49:43;;;;;;;0.63;0.40;;;;;21.40;99699.00;;;;2048790;28;20302;-74
2020/12/22 04:50:44;;;;;;;0.80;0.40;;;;;21.40;99721.00;;;;2049325;28;20216;-74
2020/12/22 04:51:44;;;;;;;1.57;0.50;;;;;21.40;99722.00;;;;2052762;28;20230;-74
2020/12/22 04:52:46;;;;;;;1.17;0.33;;;;;21.40;99721.00;;;;2049325;28;20458;-74
2020/12/22 04:53:46;;;;;;;1.63;0.40;;;;;21.40;99725.00;;;;2060529;28;20299;-74
2020/12/22 04:54:46;;;;;;;0.80;0.40;;;;;21.40;99712.00;;;;2057487;28;20698;-74
2020/12/22 04:55:47;;;;;;;1.27;0.40;;;;;21.40;99721.00;;;;2063019;28;20281;-74
2020/12/22 04:56:47;;;;;;;1.03;0.43;;;;;21.40;99721.00;;;;2065765;28;20222;-74
2020/12/22 04:57:48;;;;;;;0.73;0.50;;;;;21.40;99712.00;;;;2062939;28;20936;-74
2020/12/22 04:58:49;;;;;;;0.50;0.40;;;;;21.40;99717.00;;;;2063348;28;20306;-74
2020/12/22 04:59:49;;;;;;;0.60;0.40;;;;;21.40;99720.00;;;;2069651;28;20222;-74
2020/12/22 05:00:50;;;;;;;0.50;0.33;;;;;21.40;99725.00;;;;2067519;28;20715;-74
2020/12/22 05:01:50;;;;;;;1.27;0.40;;;;;21.40;99711.00;;;;2064668;28;20713;-74
2020/12/22 05:02:51;;;;;;;0.80;0.40;;;;;21.40;99737.00;;;;2069483;28;20221;-74
2020/12/22 05:03:51;;;;;;;1.13;0.40;;;;;21.40;99723.00;;;;2051602;28;20220;-74